Berenda, California
Current Conditions -  °F | °C
As of 5:53 AM on Wednesday 26 Nov 2014 (Local Time) from KMAE Reporting Station
Clear Clear  
Wind Chill: 40°   Ceiling: Unl
Heat Index: 40°   Visibility: 7mi
Dew Point: 35°   Wind: 3mph
Humidity: 83%   Direction: 70°ENE
Pressure: 30.34"   Gusts: NA
Location:  36.9046°N, 120.172°W
Report Text: KMAE 261353Z AUTO 07003KT 7SM CLR 04/02 A3034 RMK AO2 SLP275 T00440017
Loading
Personal Weather Stations






























Interactive Weather Map New forecast layout! Learn more

10-Day Weather Forecast

Advertisements
Track Severe Weather on mobile